HLLM

Mitiga Airport

Tripoli, Libya
TAF HLLM 202300Z 2100/2124 VRB02KT 8000 NSC TEMPO 2102/2106 4000 BR BECMG BECMG 2116/2118 06010KT
Issued Valid From Valid To
Apr-20 @ 23:00 UTC
(5 hours ago)
Apr-21 @ 00:00 UTC
(4 hours ago)
Apr-22 @ 00:00 UTC
(in 20 hours)
Apr-21 @ 00:00 to Apr-21 @ 16:00
TAF HLLM 202300Z 2100/2124 VRB02KT 8000 NSC
Wind Visibility Clouds
Variable at 2 knots 7,998 meters
  • No significant clouds
Temporary Apr-21 @ 02:00 to Apr-21 @ 06:00
TEMPO 2102/2106 4000 BR
Visibility Conditions
4,007 meters
  • Mist
Becoming Apr-21 @ 16:00 to Apr-22 @ 00:00
BECMG 2116/2118 06010KT
Wind Visibility Clouds
60° at 10 knots 7,998 meters
  • No significant clouds
TAF HLLM 202300Z 2100/2124 VRB02KT 8000 NSC TEMPO 2102/2106 4000 BR BECMG BECMG 2116/2118 06010KT
Issued Apr-20 @ 23:00 UTC
(5 hours ago)
Valid From Apr-21 @ 00:00 UTC
(4 hours ago)
Valid To Apr-22 @ 00:00 UTC
(in 20 hours)
Apr-21 @ 00:00 - Apr-21 @ 16:00
Wind Visibility
Variable at 2 knots 7,998 meters
Clouds
  • No significant clouds
Temporary Apr-21 @ 02:00 - Apr-21 @ 06:00
Conditions
  • Mist
Becoming Apr-21 @ 16:00 - Apr-22 @ 00:00
Wind Visibility
60° at 10 knots 7,998 meters
Clouds
  • No significant clouds